ENAT/ALF METAR and TAF weather

Enter ICAO airport designator
Station Type Date Time Source
ENAT METAR 2019/06/16 06:50 UTC NOAA

ENAT 160650Z 34017KT 9999 SCT035 09/04 Q1014 RMK WIND 700FT 35015KT


Station Type Date Time Source
ENAT Decoded METAR 2019/06/16 06:50 UTC NOAA

Alta Lufthavn, Norway (ENAT) 69-59N 023-22E 3M
Jun 16, 2019 - 02:50 AM EDT / 2019.06.16 0650 UTC
Wind: from the NNW (340 degrees) at 20 MPH (17 KT):0
Visibility: greater than 7 mile(s):0
Sky conditions: partly cloudy
Temperature: 48 F (9 C)
Dew Point: 39 F (4 C)
Relative Humidity: 70%
Pressure (altimeter): 29.94 in. Hg (1014 hPa)
ob: ENAT 160650Z 34017KT 9999 SCT035 09/04 Q1014 RMK WIND 700FT 35015KT
cycle: 7

Station Type Date Time Source
ENAT TAF 2008/11/30 23:00 UTC NOAA

TAF TAF ENAT 302300Z 3023/0102 22005KT 7000 -SN FEW008 BKN020
TEMPO 3023/0102 3000 -SN VV012

Example: see airport list